createdAt,value
2022-09-18T00:01:44.285Z,4.65
2022-09-18T00:04:15.120Z,5.18
2022-09-18T00:06:45.960Z,2.88
2022-09-18T00:09:15.852Z,3.70
2022-09-18T00:11:47.218Z,2.73
2022-09-18T00:14:19.783Z,5.15
2022-09-18T00:16:49.152Z,2.78
2022-09-18T00:19:18.389Z,3.95
2022-09-18T00:21:49.593Z,5.15
2022-09-18T00:24:19.308Z,4.63
2022-09-18T00:26:48.717Z,4.07
2022-09-18T00:29:18.809Z,3.17
2022-09-18T00:31:47.730Z,4.38
2022-09-18T00:34:17.637Z,3.85
2022-09-18T00:36:46.298Z,2.20
2022-09-18T00:39:14.935Z,3.22
2022-09-18T00:41:44.443Z,3.10
2022-09-18T00:44:34.812Z,3.37
2022-09-18T00:47:14.447Z,2.72
2022-09-18T00:49:47.098Z,3.77
2022-09-18T00:52:16.615Z,4.85
2022-09-18T00:54:48.088Z,2.97
2022-09-18T00:57:20.637Z,5.53
2022-09-18T00:59:53.122Z,3.70
2022-09-18T01:02:22.025Z,4.15
2022-09-18T01:04:52.117Z,4.18
2022-09-18T01:07:29.539Z,3.05
2022-09-18T01:10:06.196Z,9.23
2022-09-18T01:12:39.564Z,33.70
2022-09-18T01:15:17.100Z,16.83
2022-09-18T01:17:51.914Z,31.85
2022-09-18T01:20:31.955Z,33.03
2022-09-18T01:23:15.315Z,21.30
2022-09-18T01:25:57.675Z,17.77
2022-09-18T01:28:37.995Z,11.07
2022-09-18T01:31:12.302Z,11.98
2022-09-18T01:33:47.972Z,13.82
2022-09-18T01:36:21.714Z,10.30
2022-09-18T01:38:55.203Z,16.52
2022-09-18T01:41:26.533Z,6.75
2022-09-18T01:44:01.210Z,7.88
2022-09-18T01:46:31.272Z,6.93
2022-09-18T01:49:04.355Z,11.00
2022-09-18T01:51:41.166Z,6.28
2022-09-18T01:54:15.633Z,9.55
2022-09-18T01:56:49.176Z,5.05
2022-09-18T01:59:25.768Z,9.40
2022-09-18T02:02:06.035Z,8.45
2022-09-18T02:04:39.704Z,3.97
2022-09-18T02:07:19.593Z,5.50
2022-09-18T02:09:49.451Z,8.85
2022-09-18T02:12:22.227Z,10.43
2022-09-18T02:14:58.592Z,26.95
2022-09-18T02:17:41.878Z,17.52
2022-09-18T02:20:16.337Z,7.85
2022-09-18T02:22:47.191Z,3.97
2022-09-18T02:25:19.658Z,5.60
2022-09-18T02:27:51.050Z,5.68
2022-09-18T02:30:23.719Z,9.20
2022-09-18T02:32:55.825Z,11.80
2022-09-18T02:35:34.299Z,15.48
2022-09-18T02:38:10.895Z,17.77
2022-09-18T02:40:50.547Z,20.48
2022-09-18T02:43:37.855Z,9.57
2022-09-18T02:46:19.122Z,14.02
2022-09-18T02:48:57.793Z,15.57
2022-09-18T02:51:32.918Z,8.00
2022-09-18T02:54:07.682Z,5.93
2022-09-18T02:56:40.921Z,11.05
2022-09-18T02:59:14.036Z,12.15
2022-09-18T03:01:46.357Z,5.72
2022-09-18T03:04:25.013Z,12.00
2022-09-18T03:06:58.721Z,4.87
2022-09-18T03:09:28.134Z,5.47
2022-09-18T03:11:56.637Z,2.60
2022-09-18T03:14:25.476Z,5.45
2022-09-18T03:16:55.125Z,5.60
2022-09-18T03:19:23.987Z,2.50
2022-09-18T03:21:52.964Z,4.95
2022-09-18T03:24:25.324Z,4.90
2022-09-18T03:26:54.642Z,5.50
2022-09-18T03:29:26.060Z,4.15
2022-09-18T03:31:57.256Z,3.22
2022-09-18T03:34:26.613Z,3.33
2022-09-18T03:36:55.074Z,5.10
2022-09-18T03:39:23.686Z,4.15
2022-09-18T03:41:53.928Z,2.42
2022-09-18T03:44:22.436Z,5.70
2022-09-18T03:46:51.337Z,5.18
2022-09-18T03:49:21.614Z,4.45
2022-09-18T03:51:50.395Z,4.68
2022-09-18T03:54:19.280Z,4.93
2022-09-18T03:57:05.010Z,5.32
2022-09-18T04:00:06.617Z,4.28
2022-09-18T04:02:44.844Z,6.25
2022-09-18T04:05:33.358Z,5.80
2022-09-18T04:08:21.334Z,5.97
2022-09-18T04:10:53.501Z,4.63
2022-09-18T04:13:22.252Z,4.07
2022-09-18T04:15:50.906Z,5.63
2022-09-18T04:18:20.021Z,5.70
2022-09-18T04:20:49.835Z,4.43
2022-09-18T04:23:20.773Z,5.30
2022-09-18T04:25:49.194Z,5.32
2022-09-18T04:28:17.773Z,3.95
2022-09-18T04:30:49.400Z,8.95
2022-09-18T04:33:18.101Z,26.10
2022-09-18T04:35:50.309Z,19.23
2022-09-18T04:38:19.565Z,22.17
2022-09-18T04:40:55.269Z,22.52
2022-09-18T04:43:24.534Z,20.40
2022-09-18T04:45:53.966Z,15.63
2022-09-18T04:48:23.734Z,15.05
2022-09-18T04:50:54.689Z,9.63
2022-09-18T04:53:24.180Z,9.35
2022-09-18T04:55:52.696Z,11.38
2022-09-18T04:58:22.334Z,10.48
2022-09-18T05:00:56.649Z,7.22
2022-09-18T05:03:25.229Z,6.35
2022-09-18T05:05:56.211Z,3.78
2022-09-18T05:08:24.919Z,8.55
2022-09-18T05:10:54.477Z,9.95
2022-09-18T05:13:22.830Z,5.43
2022-09-18T05:16:00.939Z,3.80
2022-09-18T05:18:31.979Z,3.60
2022-09-18T05:21:05.456Z,5.20
2022-09-18T05:23:35.015Z,4.88
2022-09-18T05:26:04.262Z,8.23
2022-09-18T05:28:33.389Z,6.00
2022-09-18T05:31:02.934Z,4.13
2022-09-18T05:33:50.035Z,5.57
2022-09-18T05:36:19.900Z,5.97
2022-09-18T05:38:51.760Z,3.90
2022-09-18T05:41:20.449Z,8.10
2022-09-18T05:43:49.284Z,4.20
2022-09-18T05:46:17.909Z,4.35
2022-09-18T05:48:54.291Z,6.60
2022-09-18T05:51:24.154Z,4.15
2022-09-18T05:53:53.049Z,8.18
2022-09-18T05:56:25.164Z,4.97
2022-09-18T05:58:56.247Z,3.17
2022-09-18T06:01:24.772Z,4.88
2022-09-18T06:04:32.477Z,4.43
2022-09-18T06:07:06.825Z,4.13
2022-09-18T06:09:35.684Z,8.85
2022-09-18T06:12:04.302Z,5.57
2022-09-18T06:14:36.240Z,5.20
2022-09-18T06:17:05.135Z,3.72
2022-09-18T06:19:36.690Z,5.43
2022-09-18T06:22:06.497Z,6.28
2022-09-18T06:24:36.961Z,9.02
2022-09-18T06:27:10.759Z,4.78
2022-09-18T06:29:40.813Z,3.57
2022-09-18T06:32:27.866Z,2.90
2022-09-18T06:34:57.430Z,6.85
2022-09-18T06:37:28.959Z,4.72
2022-09-18T06:40:10.891Z,8.90
2022-09-18T06:43:14.769Z,4.47
2022-09-18T06:46:04.535Z,6.72
2022-09-18T06:48:40.032Z,5.13
2022-09-18T06:51:11.382Z,4.95
2022-09-18T06:54:01.141Z,5.97
2022-09-18T06:56:30.078Z,4.55
2022-09-18T06:58:58.364Z,7.43
2022-09-18T07:01:27.568Z,6.35
2022-09-18T07:04:07.577Z,7.00
2022-09-18T07:06:46.352Z,8.50
2022-09-18T07:09:17.337Z,8.27
2022-09-18T07:12:07.258Z,2.83
2022-09-18T07:14:43.772Z,5.78
2022-09-18T07:17:18.271Z,6.65
2022-09-18T07:19:49.855Z,4.40
2022-09-18T07:22:22.252Z,6.30
2022-09-18T07:24:52.007Z,2.88
2022-09-18T07:27:21.042Z,5.18
2022-09-18T07:29:51.021Z,10.57
2022-09-18T07:32:22.916Z,4.17
2022-09-18T07:34:52.122Z,6.20
2022-09-18T07:37:26.605Z,4.53
2022-09-18T07:40:26.087Z,3.67
2022-09-18T07:43:11.658Z,4.88
2022-09-18T07:45:47.003Z,5.97
2022-09-18T07:48:15.997Z,8.02
2022-09-18T07:50:49.266Z,7.45
2022-09-18T07:53:18.900Z,4.75
2022-09-18T07:55:53.131Z,6.05
2022-09-18T08:00:55.970Z,5.63
2022-09-18T08:03:26.473Z,8.27
2022-09-18T08:06:15.082Z,5.70
2022-09-18T08:09:02.825Z,7.93
2022-09-18T08:11:39.927Z,4.80
2022-09-18T08:14:29.108Z,6.00
2022-09-18T08:17:22.821Z,4.45
2022-09-18T08:20:10.555Z,4.18
2022-09-18T08:22:45.072Z,3.03
2022-09-18T08:25:15.959Z,5.13
2022-09-18T08:27:49.916Z,18.50
2022-09-18T08:30:28.225Z,4.90
2022-09-18T08:33:02.385Z,4.82
2022-09-18T08:35:32.051Z,3.17
2022-09-18T08:38:07.581Z,6.78
2022-09-18T08:41:25.911Z,3.50
2022-09-18T08:44:04.104Z,7.75
2022-09-18T08:46:38.726Z,5.80
2022-09-18T08:49:22.241Z,5.28
2022-09-18T08:51:58.816Z,3.80
2022-09-18T08:54:44.853Z,4.63
2022-09-18T08:57:25.408Z,4.72
2022-09-18T09:00:18.498Z,5.70
2022-09-18T09:02:56.633Z,3.00
2022-09-18T09:05:32.237Z,10.13
2022-09-18T09:08:29.928Z,5.45
2022-09-18T09:11:09.267Z,8.80
2022-09-18T09:14:02.969Z,8.32
2022-09-18T09:16:43.945Z,4.75
2022-09-18T09:19:28.944Z,4.50
2022-09-18T09:22:06.435Z,4.15
2022-09-18T09:24:40.321Z,5.15
2022-09-18T09:27:40.353Z,6.07
2022-09-18T09:30:34.393Z,2.70
2022-09-18T09:33:23.069Z,4.72
2022-09-18T09:36:28.622Z,7.93
2022-09-18T09:39:02.157Z,5.93
2022-09-18T09:41:37.656Z,3.83
2022-09-18T09:44:26.287Z,3.63
2022-09-18T09:47:28.657Z,4.00
2022-09-18T09:50:10.713Z,4.95
2022-09-18T09:52:41.226Z,3.40
2022-09-18T09:55:22.604Z,4.53
2022-09-18T09:58:05.328Z,2.78
2022-09-18T10:00:40.876Z,3.95
2022-09-18T10:03:34.978Z,5.88
2022-09-18T10:06:16.971Z,6.10
2022-09-18T10:08:51.150Z,4.93
2022-09-18T10:11:20.768Z,8.20
2022-09-18T10:14:00.076Z,4.70
2022-09-18T10:16:33.614Z,6.32
2022-09-18T10:19:04.509Z,3.58
2022-09-18T10:21:38.605Z,5.28
2022-09-18T10:24:18.994Z,5.70
2022-09-18T10:26:55.143Z,2.60
2022-09-18T10:29:24.030Z,4.32
2022-09-18T10:31:58.815Z,4.43
2022-09-18T10:34:40.685Z,2.95
2022-09-18T10:37:18.296Z,3.60
2022-09-18T10:39:51.905Z,2.65
2022-09-18T10:42:24.731Z,4.95
2022-09-18T10:45:02.001Z,2.65
2022-09-18T10:47:36.901Z,5.38
2022-09-18T10:50:19.064Z,7.25
2022-09-18T10:52:54.286Z,6.25
2022-09-18T10:55:31.902Z,3.65
2022-09-18T10:58:14.791Z,3.65
2022-09-18T11:00:57.361Z,5.13
2022-09-18T11:03:46.481Z,5.20
2022-09-18T11:06:23.899Z,3.35
2022-09-18T11:08:58.933Z,2.92
2022-09-18T11:11:30.985Z,3.75
2022-09-18T11:14:07.020Z,2.85
2022-09-18T11:16:52.377Z,5.85
2022-09-18T11:19:29.157Z,3.65
2022-09-18T11:22:02.157Z,2.95
2022-09-18T11:24:37.467Z,6.75
2022-09-18T11:27:21.253Z,3.28
2022-09-18T11:29:51.876Z,4.95
2022-09-18T11:32:25.257Z,11.55
2022-09-18T11:35:02.868Z,16.90
2022-09-18T11:37:38.389Z,20.92
2022-09-18T11:40:18.810Z,26.42
2022-09-18T11:42:50.875Z,24.02
2022-09-18T11:45:32.683Z,24.58
2022-09-18T11:48:08.236Z,15.45
2022-09-18T11:50:38.507Z,5.05
2022-09-18T11:53:16.115Z,14.82
2022-09-18T11:55:51.455Z,14.23
2022-09-18T11:58:27.384Z,15.02
2022-09-18T12:01:05.235Z,11.48
2022-09-18T12:03:38.644Z,12.50
2022-09-18T12:06:18.938Z,5.82
2022-09-18T12:08:52.566Z,19.95
2022-09-18T12:11:34.681Z,13.48
2022-09-18T12:14:14.713Z,10.05
2022-09-18T12:17:00.828Z,17.80
2022-09-18T12:19:37.356Z,12.57
2022-09-18T12:22:15.265Z,15.95
2022-09-18T12:24:43.763Z,12.68
2022-09-18T12:27:28.757Z,12.27
2022-09-18T12:30:07.003Z,12.88
2022-09-18T12:33:03.133Z,12.73
2022-09-18T12:35:48.480Z,9.18
2022-09-18T12:38:31.591Z,7.57
2022-09-18T12:41:16.924Z,6.28
2022-09-18T12:44:13.056Z,11.07
2022-09-18T12:47:00.407Z,11.93
2022-09-18T12:49:44.977Z,12.55
2022-09-18T12:52:27.079Z,7.25
2022-09-18T12:55:20.651Z,10.15
2022-09-18T12:58:00.380Z,5.10
2022-09-18T13:00:31.427Z,10.13
2022-09-18T13:03:09.066Z,6.78
2022-09-18T13:05:41.997Z,6.28
2022-09-18T13:08:14.745Z,5.78
2022-09-18T13:10:45.330Z,5.35
2022-09-18T13:13:17.280Z,4.07
2022-09-18T13:15:52.210Z,4.15
2022-09-18T13:18:37.413Z,3.65
2022-09-18T13:21:18.313Z,6.53
2022-09-18T13:23:48.577Z,6.80
2022-09-18T13:26:17.617Z,3.45
2022-09-18T13:28:45.914Z,11.88
2022-09-18T13:31:28.005Z,4.15
2022-09-18T13:33:58.798Z,4.28
2022-09-18T13:36:30.760Z,3.35
2022-09-18T13:39:01.736Z,5.68
2022-09-18T13:41:41.716Z,3.75
2022-09-18T13:44:19.412Z,3.40
2022-09-18T13:46:50.879Z,7.03
2022-09-18T13:49:23.289Z,7.75
2022-09-18T13:51:52.150Z,3.88
2022-09-18T13:54:28.018Z,4.93
2022-09-18T13:57:22.291Z,4.03
2022-09-18T13:59:55.652Z,3.58
2022-09-18T14:02:32.258Z,3.30
2022-09-18T14:05:30.306Z,3.13
2022-09-18T14:08:15.726Z,4.40
2022-09-18T14:11:19.297Z,4.38
2022-09-18T14:13:54.479Z,3.58
2022-09-18T14:16:43.635Z,6.45
2022-09-18T14:19:33.299Z,7.13
2022-09-18T14:22:02.848Z,6.00
2022-09-18T14:24:56.505Z,6.03
2022-09-18T14:27:45.997Z,4.45
2022-09-18T14:30:23.656Z,3.22
2022-09-18T14:33:13.300Z,5.80
2022-09-18T14:35:52.490Z,3.95
2022-09-18T14:38:32.864Z,4.22
2022-09-18T14:43:39.867Z,3.85
2022-09-18T14:48:45.972Z,3.80
2022-09-18T14:51:21.452Z,4.18
2022-09-18T14:53:51.885Z,4.43
2022-09-18T14:56:25.636Z,7.72
2022-09-18T14:58:55.508Z,3.80
2022-09-18T15:01:29.054Z,5.57
2022-09-18T15:04:00.340Z,5.88
2022-09-18T15:06:41.570Z,5.32
2022-09-18T15:09:12.989Z,7.53
2022-09-18T15:12:01.243Z,5.50
2022-09-18T15:14:41.583Z,6.25
2022-09-18T15:17:19.288Z,5.53
2022-09-18T15:19:59.796Z,7.60
2022-09-18T15:22:31.182Z,3.55
2022-09-18T15:25:01.937Z,3.92
2022-09-18T15:27:32.812Z,4.20
2022-09-18T15:30:04.233Z,5.18
2022-09-18T15:32:38.684Z,4.25
2022-09-18T15:35:09.428Z,6.10
2022-09-18T15:37:41.420Z,5.78
2022-09-18T15:40:17.795Z,3.58
2022-09-18T15:42:58.300Z,6.50
2022-09-18T15:45:28.941Z,5.57
2022-09-18T15:47:59.464Z,3.92
2022-09-18T15:50:40.873Z,3.72
2022-09-18T15:53:29.765Z,4.07
2022-09-18T15:56:01.796Z,4.80
2022-09-18T15:58:37.330Z,6.18
2022-09-18T16:01:09.088Z,9.38
2022-09-18T16:03:39.386Z,3.42
2022-09-18T16:06:08.936Z,3.60
2022-09-18T16:08:40.424Z,3.35
2022-09-18T16:11:09.215Z,5.22
2022-09-18T16:13:38.877Z,4.07
2022-09-18T16:16:25.035Z,3.37
2022-09-18T16:18:56.983Z,3.85
2022-09-18T16:21:28.166Z,27.20
2022-09-18T16:24:01.407Z,4.28
2022-09-18T16:26:33.185Z,6.00
2022-09-18T16:29:04.637Z,4.80
2022-09-18T16:31:35.546Z,5.53
2022-09-18T16:36:36.070Z,3.60
2022-09-18T16:39:08.008Z,3.38
2022-09-18T16:41:37.257Z,4.78
2022-09-18T16:44:07.380Z,5.50
2022-09-18T16:46:43.413Z,6.70
2022-09-18T16:49:14.245Z,4.28
2022-09-18T16:51:43.332Z,4.65
2022-09-18T16:54:13.517Z,5.35
2022-09-18T16:56:50.621Z,3.80
2022-09-18T16:59:24.564Z,4.60
2022-09-18T17:02:03.694Z,12.85
2022-09-18T17:04:34.542Z,16.42
2022-09-18T17:07:04.148Z,12.47
2022-09-18T17:09:34.928Z,11.50
2022-09-18T17:12:06.301Z,6.05
2022-09-18T17:14:36.489Z,7.55
2022-09-18T17:17:06.448Z,12.70
2022-09-18T17:19:35.084Z,4.45
2022-09-18T17:22:03.544Z,8.52
2022-09-18T17:24:33.694Z,13.75
2022-09-18T17:27:02.045Z,7.95
2022-09-18T17:29:30.944Z,8.68
2022-09-18T17:31:59.746Z,10.70
2022-09-18T17:34:29.303Z,5.70
2022-09-18T17:36:57.697Z,4.65
2022-09-18T17:39:26.236Z,5.38
2022-09-18T17:41:56.367Z,5.00
2022-09-18T17:44:27.448Z,7.55
2022-09-18T17:46:55.987Z,4.80
2022-09-18T17:49:25.685Z,3.95
2022-09-18T17:51:53.981Z,3.78
2022-09-18T17:54:22.878Z,4.45
2022-09-18T17:56:51.395Z,5.10
2022-09-18T17:59:21.637Z,4.00
2022-09-18T18:01:50.556Z,6.05
2022-09-18T18:04:19.386Z,8.20
2022-09-18T18:06:57.664Z,6.20
2022-09-18T18:09:26.651Z,4.28
2022-09-18T18:11:55.172Z,3.78
2022-09-18T18:14:28.313Z,4.90
2022-09-18T18:16:56.730Z,4.47
2022-09-18T18:19:25.165Z,9.40
2022-09-18T18:21:54.432Z,4.15
2022-09-18T18:24:23.390Z,5.80
2022-09-18T18:26:53.706Z,6.18
2022-09-18T18:29:22.358Z,3.83
2022-09-18T18:31:52.837Z,6.95
2022-09-18T18:34:22.212Z,10.60
2022-09-18T18:36:52.816Z,4.32
2022-09-18T18:39:21.319Z,5.65
2022-09-18T18:41:50.556Z,4.30
2022-09-18T18:44:18.886Z,5.63
2022-09-18T18:46:48.288Z,5.07
2022-09-18T18:49:17.994Z,8.02
2022-09-18T18:51:48.554Z,5.95
2022-09-18T18:54:18.623Z,5.22
2022-09-18T18:56:48.239Z,5.78
2022-09-18T18:59:18.265Z,7.47
2022-09-18T19:01:47.742Z,5.60
2022-09-18T19:04:19.759Z,3.90
2022-09-18T19:06:49.703Z,3.50
2022-09-18T19:09:21.634Z,6.22
2022-09-18T19:11:51.766Z,5.28
2022-09-18T19:14:21.988Z,5.85
2022-09-18T19:16:51.216Z,6.50
2022-09-18T19:19:23.433Z,5.50
2022-09-18T19:21:52.984Z,3.42
2022-09-18T19:24:21.878Z,9.20
2022-09-18T19:26:50.244Z,4.45
2022-09-18T19:29:21.746Z,5.75
2022-09-18T19:31:51.251Z,7.55
2022-09-18T19:34:22.764Z,5.05
2022-09-18T19:36:52.029Z,5.80
2022-09-18T19:39:24.076Z,4.23
2022-09-18T19:41:59.040Z,5.03
2022-09-18T19:44:32.911Z,3.67
2022-09-18T19:47:04.020Z,3.90
2022-09-18T19:49:37.392Z,3.70
2022-09-18T19:52:15.055Z,4.78
2022-09-18T19:54:43.914Z,5.43
2022-09-18T19:57:12.433Z,4.30
2022-09-18T19:59:41.318Z,3.50
2022-09-18T20:02:13.032Z,4.20
2022-09-18T20:04:56.080Z,4.63
2022-09-18T20:07:25.487Z,6.40
2022-09-18T20:09:55.871Z,4.05
2022-09-18T20:12:24.761Z,4.45
2022-09-18T20:14:52.926Z,4.50
2022-09-18T20:17:22.274Z,6.18
2022-09-18T20:19:52.530Z,4.25
2022-09-18T20:22:26.153Z,4.40
2022-09-18T20:25:01.223Z,3.50
2022-09-18T20:27:37.528Z,6.38
2022-09-18T20:30:08.629Z,3.95
2022-09-18T20:32:37.849Z,4.03
2022-09-18T20:35:25.174Z,17.27
2022-09-18T20:37:56.201Z,4.32
2022-09-18T20:40:24.909Z,4.43
2022-09-18T20:43:02.263Z,5.50
2022-09-18T20:45:31.302Z,8.05
2022-09-18T20:48:04.247Z,4.47
2022-09-18T20:50:37.475Z,4.88
2022-09-18T20:53:09.434Z,4.68
2022-09-18T20:55:38.636Z,4.55
2022-09-18T20:58:07.396Z,4.85
2022-09-18T21:00:37.724Z,4.15
2022-09-18T21:03:22.527Z,7.45
2022-09-18T21:06:20.932Z,6.47
2022-09-18T21:08:51.174Z,4.13
2022-09-18T21:11:22.898Z,5.32
2022-09-18T21:13:54.868Z,6.68
2022-09-18T21:16:25.225Z,4.28
2022-09-18T21:23:58.677Z,9.23
2022-09-18T21:26:33.021Z,3.20
2022-09-18T21:29:04.144Z,10.02
2022-09-18T21:31:38.476Z,3.67
2022-09-18T21:34:07.518Z,3.72
2022-09-18T21:36:38.599Z,4.03
2022-09-18T21:39:08.660Z,4.00
2022-09-18T21:41:38.014Z,3.55
2022-09-18T21:44:09.041Z,3.37
2022-09-18T21:49:09.194Z,3.15
2022-09-18T21:51:41.316Z,5.10
2022-09-18T21:54:15.457Z,4.50
2022-09-18T21:56:45.129Z,6.70
2022-09-18T21:59:14.121Z,3.40
2022-09-18T22:01:43.570Z,3.35
2022-09-18T22:04:12.602Z,8.97
2022-09-18T22:06:45.903Z,3.28
2022-09-18T22:09:17.062Z,3.40
2022-09-18T22:11:46.852Z,3.13
2022-09-18T22:14:18.303Z,4.68
2022-09-18T22:16:48.194Z,3.58
2022-09-18T22:19:18.177Z,4.57
2022-09-18T22:21:49.470Z,5.45
2022-09-18T22:24:20.156Z,3.45
2022-09-18T22:26:50.347Z,3.65
2022-09-18T22:29:21.066Z,3.17
2022-09-18T22:31:50.323Z,5.50
2022-09-18T22:34:20.919Z,4.43
2022-09-18T22:36:51.012Z,5.63
2022-09-18T22:39:21.925Z,3.53
2022-09-18T22:44:21.711Z,3.45
2022-09-18T22:46:52.441Z,5.18
2022-09-18T22:49:23.276Z,3.38
2022-09-18T22:51:53.270Z,3.40
2022-09-18T22:54:26.383Z,3.83
2022-09-18T22:56:56.181Z,3.90
2022-09-18T22:59:26.644Z,3.63
2022-09-18T23:01:57.798Z,3.55
2022-09-18T23:04:28.998Z,3.30
2022-09-18T23:07:00.052Z,3.33
2022-09-18T23:09:29.744Z,3.95
2022-09-18T23:11:58.895Z,3.45
2022-09-18T23:14:28.920Z,5.43
2022-09-18T23:16:58.884Z,3.45
2022-09-18T23:19:29.160Z,3.17
2022-09-18T23:21:59.485Z,2.90
2022-09-18T23:24:28.152Z,6.03
2022-09-18T23:26:58.941Z,4.22
2022-09-18T23:29:28.792Z,5.05
2022-09-18T23:31:58.399Z,20.25
2022-09-18T23:34:29.499Z,5.60
2022-09-18T23:36:59.874Z,3.65
2022-09-18T23:39:29.624Z,3.28
2022-09-18T23:42:01.653Z,4.18
2022-09-18T23:44:31.297Z,2.97
2022-09-18T23:47:01.499Z,3.60
2022-09-18T23:49:30.100Z,3.53
2022-09-18T23:52:01.019Z,3.55
2022-09-18T23:56:59.253Z,3.45
2022-09-18T23:59:28.350Z,3.65
